createdAt,value
2018-04-06T00:03:21.059Z,101633
2018-04-06T00:08:24.165Z,101633
2018-04-06T00:13:29.203Z,101641
2018-04-06T00:18:32.673Z,101639
2018-04-06T00:23:36.143Z,101631
2018-04-06T00:28:39.244Z,101635
2018-04-06T00:33:42.328Z,101634
2018-04-06T00:38:47.191Z,101634
2018-04-06T00:43:50.286Z,101633
2018-04-06T00:48:54.362Z,101630
2018-04-06T00:53:58.785Z,101627
2018-04-06T00:59:03.375Z,101624
2018-04-06T01:04:07.798Z,101620
2018-04-06T01:09:12.227Z,101615
2018-04-06T01:14:15.327Z,101615
2018-04-06T01:19:19.170Z,101616
2018-04-06T01:24:22.679Z,101613
2018-04-06T01:29:25.783Z,101611
2018-04-06T01:34:29.634Z,101624
2018-04-06T01:39:32.976Z,101613
2018-04-06T01:44:36.455Z,101619
2018-04-06T01:49:39.935Z,101622
2018-04-06T01:54:44.162Z,101622
2018-04-06T01:59:48.908Z,101623
2018-04-06T02:04:53.526Z,101630
2018-04-06T02:09:56.627Z,101623
2018-04-06T02:15:01.211Z,101622
2018-04-06T02:20:05.044Z,101615
2018-04-06T02:25:08.522Z,101612
2018-04-06T02:30:11.620Z,101613
2018-04-06T02:35:15.472Z,101602
2018-04-06T02:40:18.579Z,101599
2018-04-06T02:45:22.429Z,101591
2018-04-06T02:50:26.851Z,101614
2018-04-06T02:55:30.704Z,101605
2018-04-06T03:00:35.142Z,101609
2018-04-06T03:05:39.558Z,101611
2018-04-06T03:10:42.641Z,101609
2018-04-06T03:15:47.918Z,101604
2018-04-06T03:20:51.793Z,101603
2018-04-06T03:25:54.871Z,101602
2018-04-06T03:30:58.369Z,101603
2018-04-06T03:36:02.231Z,101594
2018-04-06T03:41:06.075Z,101590
2018-04-06T03:46:10.325Z,101588
2018-04-06T03:51:13.430Z,101592
2018-04-06T03:56:17.895Z,101595
2018-04-06T04:01:20.982Z,101592
2018-04-06T04:06:24.068Z,101592
2018-04-06T04:11:28.310Z,101593
2018-04-06T04:16:31.800Z,101595
2018-04-06T04:21:34.905Z,101590
2018-04-06T04:26:38.008Z,101594
2018-04-06T04:31:41.082Z,101600
2018-04-06T04:36:45.522Z,101585
2018-04-06T04:41:49.422Z,101598
2018-04-06T04:46:53.299Z,101586
2018-04-06T04:51:56.420Z,101593
2018-04-06T04:57:01.188Z,101604
2018-04-06T05:02:04.672Z,101599
2018-04-06T05:07:07.772Z,101596
2018-04-06T05:12:10.861Z,101609
2018-04-06T05:17:13.946Z,101609
2018-04-06T05:22:18.382Z,101595
2018-04-06T05:27:21.866Z,101589
2018-04-06T05:32:26.496Z,101595
2018-04-06T05:37:31.083Z,101601
2018-04-06T05:42:35.652Z,101598
2018-04-06T05:47:40.099Z,101601
2018-04-06T05:52:43.200Z,101607
2018-04-06T05:57:46.279Z,101612
2018-04-06T06:02:50.135Z,101615
2018-04-06T06:07:53.215Z,101621
2018-04-06T06:12:57.809Z,101613
2018-04-06T06:18:02.408Z,101613
2018-04-06T06:23:06.239Z,101622
2018-04-06T06:28:10.096Z,101611
2018-04-06T06:33:13.592Z,101615
2018-04-06T06:38:16.704Z,101618
2018-04-06T06:43:19.774Z,101613
2018-04-06T06:48:22.875Z,101622
2018-04-06T06:53:27.299Z,101608
2018-04-06T06:58:30.777Z,101599
2018-04-06T07:03:33.859Z,101602
2018-04-06T07:08:37.725Z,101581
2018-04-06T07:13:42.183Z,101572
2018-04-06T07:18:46.395Z,101561
2018-04-06T07:23:49.894Z,101549
2018-04-06T07:28:53.376Z,101541
2018-04-06T07:33:57.811Z,101537
2018-04-06T07:39:01.313Z,101514
2018-04-06T07:44:05.747Z,101499
2018-04-06T07:49:09.601Z,101489
2018-04-06T07:54:13.672Z,101479
2018-04-06T07:59:18.127Z,101478
2018-04-06T08:04:21.220Z,101480
2018-04-06T08:09:25.638Z,101474
2018-04-06T08:14:29.503Z,101480
2018-04-06T08:19:32.988Z,101486
2018-04-06T08:24:36.482Z,101493
2018-04-06T08:29:41.085Z,101493
2018-04-06T08:34:44.168Z,101496
2018-04-06T08:39:48.869Z,101494
2018-04-06T08:44:53.468Z,101490
2018-04-06T08:49:58.444Z,101494
2018-04-06T08:55:03.051Z,101511
2018-04-06T09:00:07.278Z,101491
2018-04-06T09:05:11.706Z,101481
2018-04-06T09:10:16.126Z,101488
2018-04-06T09:15:19.972Z,101487
2018-04-06T09:20:24.415Z,101481
2018-04-06T09:25:27.504Z,101479
2018-04-06T09:30:31.947Z,101468
2018-04-06T09:35:35.027Z,101457
2018-04-06T09:40:38.499Z,101462
2018-04-06T09:45:42.923Z,101452
2018-04-06T09:50:47.371Z,101439
2018-04-06T09:55:51.585Z,101450
2018-04-06T10:00:58.463Z,101428
2018-04-06T10:06:02.674Z,101436
2018-04-06T10:11:07.128Z,101406
2018-04-06T10:16:10.227Z,101394
2018-04-06T10:21:13.704Z,101388
2018-04-06T10:26:17.188Z,101386
2018-04-06T10:31:21.624Z,101383
2018-04-06T10:36:25.874Z,101416
2018-04-06T10:41:28.942Z,101382
2018-04-06T10:46:32.857Z,101375
2018-04-06T10:51:37.811Z,101364
2018-04-06T10:56:42.255Z,101370
2018-04-06T11:01:46.109Z,101342
2018-04-06T11:06:49.188Z,101344
2018-04-06T11:11:53.643Z,101335
2018-04-06T11:16:58.227Z,101323
2018-04-06T11:22:01.334Z,101308
2018-04-06T11:27:04.410Z,101295
2018-04-06T11:32:08.853Z,101290
2018-04-06T11:37:12.724Z,101282
2018-04-06T11:42:15.794Z,101284
2018-04-06T11:47:18.884Z,101273
2018-04-06T11:52:22.062Z,101256
2018-04-06T11:57:25.127Z,101253
2018-04-06T12:02:28.968Z,101241
2018-04-06T12:07:32.439Z,101229
2018-04-06T12:12:35.919Z,101216
2018-04-06T12:17:40.371Z,101215
2018-04-06T12:22:44.587Z,101213
2018-04-06T12:27:49.011Z,101189
2018-04-06T12:32:53.453Z,101190
2018-04-06T12:37:57.308Z,101198
2018-04-06T12:43:01.757Z,101178
2018-04-06T12:48:04.836Z,101171
2018-04-06T12:53:08.312Z,101157
2018-04-06T12:58:12.752Z,101143
2018-04-06T13:03:16.219Z,101143
2018-04-06T13:08:20.464Z,101140
2018-04-06T13:13:24.311Z,101114
2018-04-06T13:18:27.814Z,101102
2018-04-06T13:23:31.664Z,101102
2018-04-06T13:28:34.752Z,101117
2018-04-06T13:33:37.841Z,101105
2018-04-06T13:38:41.322Z,101106
2018-04-06T13:43:44.400Z,101069
2018-04-06T13:48:48.256Z,101056
2018-04-06T13:53:51.744Z,101066
2018-04-06T13:58:54.845Z,101056
2018-04-06T14:03:59.462Z,101062
2018-04-06T14:09:03.915Z,101076
2018-04-06T14:14:08.501Z,101037
2018-04-06T14:19:12.707Z,101015
2018-04-06T14:24:17.130Z,101030
2018-04-06T14:29:21.368Z,101006
2018-04-06T14:34:24.447Z,101011
2018-04-06T14:39:28.302Z,101006
2018-04-06T14:44:31.401Z,100998
2018-04-06T14:49:35.268Z,100978
2018-04-06T14:54:38.363Z,100978
2018-04-06T14:59:41.456Z,100967
2018-04-06T15:04:44.544Z,100957
2018-04-06T15:09:47.845Z,100955
2018-04-06T15:14:52.449Z,100949
2018-04-06T15:19:57.118Z,100941
2018-04-06T15:25:00.949Z,100931
2018-04-06T15:30:05.077Z,100927
2018-04-06T15:35:08.583Z,100920
2018-04-06T15:40:13.167Z,100935
2018-04-06T15:45:17.595Z,100920
2018-04-06T15:50:21.475Z,100915
2018-04-06T15:55:24.536Z,100908
2018-04-06T16:00:27.623Z,100903
2018-04-06T16:05:32.068Z,100911
2018-04-06T16:10:36.667Z,100893
2018-04-06T16:15:39.752Z,100887
2018-04-06T16:20:43.607Z,100886
2018-04-06T16:25:47.452Z,100895
2018-04-06T16:30:52.047Z,100893
2018-04-06T16:35:55.124Z,100881
2018-04-06T16:40:59.716Z,100889
2018-04-06T16:46:02.801Z,100880
2018-04-06T16:51:05.899Z,100882
2018-04-06T16:56:09.375Z,100889
2018-04-06T17:01:13.965Z,100876
2018-04-06T17:06:17.055Z,100879
2018-04-06T17:11:20.135Z,100875
2018-04-06T17:16:24.363Z,100875
2018-04-06T17:21:28.796Z,100876
2018-04-06T17:26:32.645Z,100886
2018-04-06T17:31:37.078Z,100883
2018-04-06T17:36:40.557Z,100890
2018-04-06T17:41:43.647Z,100887
2018-04-06T17:46:46.749Z,100890
2018-04-06T17:51:51.176Z,100884
2018-04-06T17:56:55.401Z,100887
2018-04-06T18:01:58.480Z,100884
2018-04-06T18:07:01.959Z,100889
2018-04-06T18:12:05.031Z,100893
2018-04-06T18:17:08.877Z,100892
2018-04-06T18:22:12.721Z,100888
2018-04-06T18:27:16.205Z,100881
2018-04-06T18:32:20.062Z,100879
2018-04-06T18:37:23.147Z,100885
2018-04-06T18:42:26.231Z,100887
2018-04-06T18:47:30.659Z,100888
2018-04-06T18:52:35.252Z,100888
2018-04-06T18:57:38.348Z,100891
2018-04-06T19:02:42.190Z,100894
2018-04-06T19:07:45.275Z,100892
2018-04-06T19:12:49.715Z,100884
2018-04-06T19:17:53.188Z,100877
2018-04-06T19:22:56.663Z,100856
2018-04-06T19:27:59.756Z,100853
2018-04-06T19:33:04.198Z,100856
2018-04-06T19:38:07.279Z,100848
2018-04-06T19:43:11.128Z,100848
2018-04-06T19:48:14.220Z,100841
2018-04-06T19:53:18.649Z,100831
2018-04-06T19:58:23.235Z,100835
2018-04-06T20:03:26.315Z,100829
2018-04-06T20:08:30.164Z,100821
2018-04-06T20:13:34.379Z,100807
2018-04-06T20:18:38.979Z,100788
2018-04-06T20:23:43.407Z,100786
2018-04-06T20:28:47.256Z,100781
2018-04-06T20:33:51.692Z,100770
2018-04-06T20:38:55.575Z,100767
2018-04-06T20:43:59.072Z,100759
2018-04-06T20:49:02.561Z,100758
2018-04-06T20:54:06.404Z,100758
2018-04-06T20:59:10.262Z,100750
2018-04-06T21:04:13.344Z,100742
2018-04-06T21:09:16.444Z,100744
2018-04-06T21:14:19.555Z,100739
2018-04-06T21:19:22.634Z,100732
2018-04-06T21:24:26.480Z,100725
2018-04-06T21:29:30.935Z,100730
2018-04-06T21:34:34.433Z,100718
2018-04-06T21:39:37.913Z,100720
2018-04-06T21:44:41.805Z,100711
2018-04-06T21:49:45.659Z,100716
2018-04-06T21:54:49.518Z,100702
2018-04-06T21:59:52.601Z,100700
2018-04-06T22:04:56.821Z,100699
2018-04-06T22:10:01.251Z,100690
2018-04-06T22:15:05.855Z,100686
2018-04-06T22:20:08.956Z,100687
2018-04-06T22:25:13.384Z,100694
2018-04-06T22:30:16.476Z,100691
2018-04-06T22:35:20.708Z,100698
2018-04-06T22:40:24.940Z,100703
2018-04-06T22:45:28.790Z,100697
2018-04-06T22:50:33.230Z,100709
2018-04-06T22:55:36.720Z,100706
2018-04-06T23:00:41.166Z,100715
2018-04-06T23:05:45.587Z,100713
2018-04-06T23:10:48.680Z,100701
2018-04-06T23:15:51.776Z,100701
2018-04-06T23:20:54.880Z,100693
2018-04-06T23:25:57.968Z,100682
2018-04-06T23:31:02.411Z,100680
2018-04-06T23:36:05.496Z,100670
2018-04-06T23:41:09.939Z,100670
2018-04-06T23:46:14.156Z,100660
2018-04-06T23:51:18.595Z,100669
2018-04-06T23:56:22.460Z,100663
